createdAt,value
2018-12-04T10:31:06.793Z,8.90
2018-12-04T10:33:43.239Z,9.10
2018-12-04T10:36:10.984Z,9.30
2018-12-04T10:38:40.601Z,9.40
2018-12-04T10:41:10.408Z,9.50
2018-12-04T10:43:46.960Z,9.40
2018-12-04T10:46:14.731Z,9.20
2018-12-04T10:48:49.405Z,9.00
2018-12-04T10:51:19.296Z,8.90
2018-12-04T10:53:55.828Z,8.90
2018-12-04T10:56:30.947Z,8.90
2018-12-04T10:59:05.791Z,8.90
2018-12-04T11:01:40.161Z,9.00
2018-12-04T11:04:16.311Z,9.00
2018-12-04T11:06:51.291Z,9.10
2018-12-04T11:09:27.859Z,9.10
2018-12-04T11:11:57.886Z,9.30
2018-12-04T11:14:27.447Z,9.40
2018-12-04T11:17:04.333Z,9.50
2018-12-04T11:19:40.789Z,9.60
2018-12-04T11:22:10.307Z,9.70
2018-12-04T11:24:47.036Z,9.80
2018-12-04T11:27:23.729Z,9.90
2018-12-04T11:29:56.331Z,10.00
2018-12-04T11:32:26.272Z,10.10
2018-12-04T11:35:03.485Z,10.20
2018-12-04T11:37:38.659Z,10.20
2018-12-04T11:40:08.545Z,10.20
2018-12-04T11:42:51.783Z,10.30
2018-12-04T11:45:21.760Z,10.40
2018-12-04T11:47:58.488Z,10.40
2018-12-04T11:50:28.104Z,10.40
2018-12-04T11:52:58.028Z,10.40
2018-12-04T11:55:30.367Z,10.30
2018-12-04T11:58:00.183Z,10.30
2018-12-04T12:00:29.976Z,10.30
2018-12-04T12:02:59.355Z,10.40
2018-12-04T12:05:35.959Z,10.40
2018-12-04T12:08:10.763Z,10.40
2018-12-04T12:10:40.746Z,10.20
2018-12-04T12:13:13.012Z,10.20
2018-12-04T12:15:43.060Z,10.30
2018-12-04T12:18:17.961Z,10.50
2018-12-04T12:20:47.679Z,10.60
2018-12-04T12:23:22.536Z,10.70
2018-12-04T12:25:57.291Z,11.10
2018-12-04T12:28:32.043Z,11.10
2018-12-04T12:31:01.702Z,10.90
2018-12-04T12:33:38.275Z,10.70
2018-12-04T12:36:14.946Z,10.60
2018-12-04T12:38:51.771Z,10.70
2018-12-04T12:41:21.568Z,11.00
2018-12-04T12:43:51.118Z,11.00
2018-12-04T12:46:27.923Z,10.70
2018-12-04T12:49:04.462Z,10.10
2018-12-04T12:51:34.010Z,9.20
2018-12-04T12:54:08.832Z,8.60
2018-12-04T12:56:45.423Z,8.10
2018-12-04T12:59:20.159Z,7.80
2018-12-04T13:01:50.040Z,7.50
2018-12-04T13:04:18.863Z,7.30
2018-12-04T13:06:53.756Z,7.20
2018-12-04T13:09:30.196Z,7.10
2018-12-04T13:11:57.951Z,7.10
2018-12-04T13:14:27.549Z,7.10
2018-12-04T13:16:55.457Z,7.00
2018-12-04T13:19:36.795Z,7.00
2018-12-04T13:22:07.719Z,7.00
2018-12-04T13:24:45.487Z,6.90
2018-12-04T13:27:13.119Z,6.90
2018-12-04T13:29:49.672Z,6.80
2018-12-04T13:32:19.547Z,6.80
2018-12-04T13:34:56.027Z,6.80
2018-12-04T13:37:32.676Z,6.80
2018-12-04T13:40:09.623Z,6.90
2018-12-04T13:42:39.468Z,7.10
2018-12-04T13:45:07.333Z,7.20
2018-12-04T13:47:46.714Z,7.30
2018-12-04T13:50:16.888Z,7.20
2018-12-04T13:52:47.467Z,7.20
2018-12-04T13:55:24.036Z,7.10
2018-12-04T13:58:00.628Z,7.20
2018-12-04T14:00:37.514Z,7.20
2018-12-04T14:03:24.063Z,7.30
2018-12-04T14:05:59.146Z,7.30
2018-12-04T14:08:35.602Z,7.20
2018-12-04T14:11:05.307Z,7.20
2018-12-04T14:13:41.722Z,7.10
2018-12-04T14:16:18.267Z,7.10
2018-12-04T14:18:48.983Z,7.10
2018-12-04T14:21:18.749Z,7.00
2018-12-04T14:23:46.319Z,6.90
2018-12-04T14:26:23.021Z,6.80
2018-12-04T14:28:59.630Z,6.80
2018-12-04T14:31:29.451Z,6.70
2018-12-04T14:33:59.125Z,6.70
2018-12-04T14:36:35.460Z,6.60
2018-12-04T14:39:10.288Z,6.60
2018-12-04T14:41:40.090Z,6.60
2018-12-04T14:44:16.843Z,6.50
2018-12-04T14:46:53.611Z,6.60
2018-12-04T14:49:26.143Z,6.60
2018-12-04T14:51:56.077Z,6.60
2018-12-04T14:54:32.635Z,6.60
2018-12-04T14:57:09.200Z,6.60
2018-12-04T14:59:46.010Z,6.70
2018-12-04T15:02:15.839Z,6.70
2018-12-04T15:04:52.349Z,6.80
2018-12-04T15:07:27.195Z,6.80
2018-12-04T15:09:57.112Z,6.80
2018-12-04T15:12:27.015Z,6.70
2018-12-04T15:15:03.907Z,6.80
2018-12-04T15:17:39.174Z,6.80
2018-12-04T15:20:09.008Z,6.90
2018-12-04T15:22:38.530Z,6.90
2018-12-04T15:25:11.074Z,6.90
2018-12-04T15:27:39.127Z,6.90
2018-12-04T15:30:15.630Z,6.90
2018-12-04T15:32:46.553Z,7.00
2018-12-04T15:35:22.811Z,6.90
2018-12-04T15:37:52.975Z,6.90
2018-12-04T15:40:29.476Z,6.80
2018-12-04T15:42:59.312Z,6.70
2018-12-04T15:45:29.311Z,6.60
2018-12-04T15:48:05.909Z,6.40
2018-12-04T15:50:33.683Z,6.30
2018-12-04T15:53:01.180Z,6.20
2018-12-04T15:55:37.459Z,6.00
2018-12-04T15:58:14.204Z,6.00
2018-12-04T16:00:42.207Z,5.90
2018-12-04T16:03:18.723Z,5.80
2018-12-04T16:05:55.300Z,5.80
2018-12-04T16:08:31.949Z,5.80
2018-12-04T16:11:02.113Z,5.80
2018-12-04T16:13:38.659Z,5.80
2018-12-04T16:16:13.577Z,5.70
2018-12-04T16:18:43.067Z,5.60
2018-12-04T16:21:12.883Z,5.60
2018-12-04T16:23:42.573Z,5.50
2018-12-04T16:26:17.439Z,5.50
2018-12-04T16:28:49.778Z,5.40
2018-12-04T16:31:19.468Z,5.50
2018-12-04T16:33:56.139Z,5.50
2018-12-04T16:36:33.103Z,5.40
2018-12-04T16:39:09.883Z,5.50
2018-12-04T16:41:39.749Z,5.50
2018-12-04T16:44:12.065Z,5.50
2018-12-04T16:46:41.992Z,5.50
2018-12-04T16:49:09.551Z,5.50
2018-12-04T16:51:39.571Z,5.50
2018-12-04T16:54:16.027Z,5.50
2018-12-04T16:56:50.747Z,5.50
2018-12-04T16:59:25.891Z,5.50
2018-12-04T17:01:55.677Z,5.50
2018-12-04T17:04:25.267Z,5.50
2018-12-04T17:06:55.247Z,5.50
2018-12-04T17:09:31.616Z,5.40
2018-12-04T17:12:01.700Z,5.40
2018-12-04T17:14:38.175Z,5.50
2018-12-04T17:17:12.922Z,5.60
2018-12-04T17:19:47.910Z,5.70
2018-12-04T17:22:17.733Z,5.80
2018-12-04T17:24:47.104Z,5.80
2018-12-04T17:27:23.576Z,5.90
2018-12-04T17:30:00.175Z,6.00
2018-12-04T17:32:30.760Z,6.10
2018-12-04T17:35:07.346Z,6.10
2018-12-04T17:37:43.855Z,6.20
2018-12-04T17:40:20.701Z,6.20
2018-12-04T17:42:48.820Z,6.20
2018-12-04T17:45:18.436Z,6.10
2018-12-04T17:47:48.150Z,6.10
2018-12-04T17:50:24.720Z,6.00
2018-12-04T17:52:54.536Z,5.90
2018-12-04T17:55:31.183Z,5.80
2018-12-04T17:58:06.011Z,5.80
2018-12-04T18:00:36.211Z,5.60
2018-12-04T18:03:05.995Z,5.50
2018-12-04T18:05:42.748Z,5.30
2018-12-04T18:08:19.149Z,5.20
2018-12-04T18:10:48.931Z,5.00
2018-12-04T18:13:25.264Z,4.80
2018-12-04T18:15:55.303Z,4.60
2018-12-04T18:18:31.660Z,4.40
2018-12-04T18:21:01.791Z,4.20
2018-12-04T18:23:38.321Z,4.00
2018-12-04T18:26:06.179Z,4.00
2018-12-04T18:28:35.780Z,3.70
2018-12-04T18:31:06.467Z,3.60
2018-12-04T18:33:43.073Z,3.50
2018-12-04T18:36:17.916Z,3.50
2018-12-04T18:43:49.292Z,3.70
2018-12-04T18:46:26.036Z,3.80
2018-12-04T18:48:58.884Z,3.80
2018-12-04T18:51:26.740Z,3.90
2018-12-04T18:54:04.205Z,4.00
2018-12-04T18:56:40.782Z,4.10
2018-12-04T18:59:15.551Z,4.10
2018-12-04T19:01:45.527Z,4.20
2018-12-04T19:04:20.459Z,4.20
2018-12-04T19:06:48.068Z,4.20
2018-12-04T19:09:24.988Z,4.20
2018-12-04T19:11:54.431Z,4.20
2018-12-04T19:14:31.191Z,4.20
2018-12-04T19:17:07.870Z,4.20
2018-12-04T19:19:44.630Z,4.20
2018-12-04T19:22:12.444Z,4.20
2018-12-04T19:24:48.679Z,4.20
2018-12-04T19:27:23.756Z,4.10
2018-12-04T19:29:51.760Z,4.00
2018-12-04T19:32:19.282Z,3.90
2018-12-04T19:34:55.340Z,3.80
2018-12-04T19:37:23.127Z,3.70
2018-12-04T19:39:59.772Z,3.60
2018-12-04T19:42:29.589Z,3.50
2018-12-04T19:45:06.171Z,3.40
2018-12-04T19:47:41.040Z,3.40
2018-12-04T19:50:09.078Z,3.40
2018-12-04T19:52:39.377Z,3.40
2018-12-04T19:55:15.643Z,3.30
2018-12-04T19:57:52.221Z,3.30
2018-12-04T20:00:27.227Z,3.20
2018-12-04T20:02:56.796Z,3.10
2018-12-04T20:05:24.885Z,3.10
2018-12-04T20:07:56.328Z,3.00
2018-12-04T20:10:32.868Z,2.90
2018-12-04T20:13:02.808Z,2.90
2018-12-04T20:15:39.523Z,2.90
2018-12-04T20:18:07.295Z,2.80
2018-12-04T20:20:36.751Z,2.80
2018-12-04T20:23:06.742Z,2.90
2018-12-04T20:25:37.893Z,2.90
2018-12-04T20:28:15.470Z,2.90
2018-12-04T20:30:53.244Z,2.90
2018-12-04T20:33:20.981Z,2.80
2018-12-04T20:35:49.798Z,2.80
2018-12-04T20:38:26.151Z,2.80
2018-12-04T20:40:56.171Z,2.80
2018-12-04T20:43:39.681Z,2.80
2018-12-04T20:46:16.373Z,2.70
2018-12-04T20:48:44.412Z,2.70
